Mount Enterprise, Texas
Current Conditions -  °F | °C
As of 4:15 PM on Monday 26 Jan 2015 (Local Time) from KRFI Reporting Station
Clear Clear  
Wind Chill: 66°   Ceiling: Unl
Heat Index: 66°   Visibility: 10mi
Dew Point: 33°   Wind: 7mph
Humidity: 29%   Direction: 260°W
Pressure: 30.09"   Gusts: NA
Location:  31.92°N, 94.68°W
Report Text: KRFI 262215Z AUTO 26006KT 10SM CLR 19/01 A3009 RMK AO2 T01910008
Loading
Personal Weather Stations






























Interactive Weather Map New forecast layout! Learn more

10-Day Weather Forecast

Advertisements
Track Severe Weather on mobile